sensor_id;sensor_type;location;lat;lon;timestamp;P1;durP1;ratioP1;P2;durP2;ratioP2
11743;SDS011;5929;51.906;7.674;2023-09-12T00:01:35;38.03;;;27.13;;
11743;SDS011;5929;51.906;7.674;2023-09-12T00:04:05;34.75;;;25.88;;
11743;SDS011;5929;51.906;7.674;2023-09-12T00:06:31;44.22;;;28.33;;
11743;SDS011;5929;51.906;7.674;2023-09-12T00:08:58;41.20;;;28.70;;
11743;SDS011;5929;51.906;7.674;2023-09-12T00:11:25;43.88;;;29.75;;
11743;SDS011;5929;51.906;7.674;2023-09-12T00:13:52;47.88;;;28.05;;
11743;SDS011;5929;51.906;7.674;2023-09-12T00:16:20;50.92;;;31.33;;
11743;SDS011;5929;51.906;7.674;2023-09-12T00:18:49;48.28;;;31.92;;
11743;SDS011;5929;51.906;7.674;2023-09-12T00:21:16;50.63;;;32.00;;
11743;SDS011;5929;51.906;7.674;2023-09-12T00:23:42;50.10;;;31.30;;
11743;SDS011;5929;51.906;7.674;2023-09-12T00:26:09;54.20;;;31.58;;
11743;SDS011;5929;51.906;7.674;2023-09-12T00:28:36;55.63;;;31.80;;
11743;SDS011;5929;51.906;7.674;2023-09-12T00:31:03;54.22;;;32.42;;
11743;SDS011;5929;51.906;7.674;2023-09-12T00:33:31;51.40;;;31.95;;
11743;SDS011;5929;51.906;7.674;2023-09-12T00:35:58;53.05;;;31.60;;
11743;SDS011;5929;51.906;7.674;2023-09-12T00:38:25;59.30;;;33.33;;
11743;SDS011;5929;51.906;7.674;2023-09-12T00:40:52;59.38;;;32.72;;
11743;SDS011;5929;51.906;7.674;2023-09-12T00:43:19;62.63;;;34.33;;
11743;SDS011;5929;51.906;7.674;2023-09-12T00:45:45;72.07;;;37.00;;
11743;SDS011;5929;51.906;7.674;2023-09-12T00:48:12;64.00;;;34.42;;
11743;SDS011;5929;51.906;7.674;2023-09-12T00:50:44;60.25;;;34.47;;
11743;SDS011;5929;51.906;7.674;2023-09-12T00:53:12;60.78;;;34.92;;
11743;SDS011;5929;51.906;7.674;2023-09-12T00:55:40;48.50;;;30.83;;
11743;SDS011;5929;51.906;7.674;2023-09-12T00:58:11;60.13;;;35.20;;
11743;SDS011;5929;51.906;7.674;2023-09-12T01:00:40;56.13;;;33.72;;
11743;SDS011;5929;51.906;7.674;2023-09-12T01:03:07;51.92;;;32.85;;
11743;SDS011;5929;51.906;7.674;2023-09-12T01:05:34;61.70;;;35.80;;
11743;SDS011;5929;51.906;7.674;2023-09-12T01:08:03;53.22;;;34.03;;
11743;SDS011;5929;51.906;7.674;2023-09-12T01:10:30;56.47;;;34.25;;
11743;SDS011;5929;51.906;7.674;2023-09-12T01:12:57;56.03;;;34.35;;
11743;SDS011;5929;51.906;7.674;2023-09-12T01:15:24;62.40;;;38.58;;
11743;SDS011;5929;51.906;7.674;2023-09-12T01:17:51;61.67;;;35.10;;
11743;SDS011;5929;51.906;7.674;2023-09-12T01:20:19;61.70;;;35.38;;
11743;SDS011;5929;51.906;7.674;2023-09-12T01:23:02;64.88;;;38.83;;
11743;SDS011;5929;51.906;7.674;2023-09-12T01:28:54;56.10;;;35.58;;
11743;SDS011;5929;51.906;7.674;2023-09-12T01:31:23;54.08;;;35.17;;
11743;SDS011;5929;51.906;7.674;2023-09-12T01:33:54;55.53;;;38.42;;
11743;SDS011;5929;51.906;7.674;2023-09-12T01:36:21;70.63;;;41.33;;
11743;SDS011;5929;51.906;7.674;2023-09-12T01:38:48;76.30;;;46.20;;
11743;SDS011;5929;51.906;7.674;2023-09-12T01:41:15;75.68;;;45.38;;
11743;SDS011;5929;51.906;7.674;2023-09-12T01:43:42;77.28;;;44.60;;
11743;SDS011;5929;51.906;7.674;2023-09-12T01:46:11;83.15;;;46.75;;
11743;SDS011;5929;51.906;7.674;2023-09-12T01:48:39;121.28;;;54.15;;
11743;SDS011;5929;51.906;7.674;2023-09-12T01:51:07;124.32;;;56.10;;
11743;SDS011;5929;51.906;7.674;2023-09-12T01:53:34;117.38;;;54.33;;
11743;SDS011;5929;51.906;7.674;2023-09-12T01:56:02;119.45;;;55.45;;
11743;SDS011;5929;51.906;7.674;2023-09-12T01:58:29;122.95;;;55.92;;
11743;SDS011;5929;51.906;7.674;2023-09-12T02:00:57;111.00;;;56.08;;
11743;SDS011;5929;51.906;7.674;2023-09-12T02:03:26;109.53;;;52.38;;
11743;SDS011;5929;51.906;7.674;2023-09-12T02:05:52;94.25;;;51.40;;
11743;SDS011;5929;51.906;7.674;2023-09-12T02:08:19;106.55;;;51.08;;
11743;SDS011;5929;51.906;7.674;2023-09-12T02:10:48;122.30;;;54.97;;
11743;SDS011;5929;51.906;7.674;2023-09-12T02:13:15;96.03;;;52.38;;
11743;SDS011;5929;51.906;7.674;2023-09-12T02:15:42;119.32;;;56.22;;
11743;SDS011;5929;51.906;7.674;2023-09-12T02:18:09;132.63;;;57.65;;
11743;SDS011;5929;51.906;7.674;2023-09-12T02:20:40;115.47;;;51.72;;
11743;SDS011;5929;51.906;7.674;2023-09-12T02:23:10;129.27;;;56.92;;
11743;SDS011;5929;51.906;7.674;2023-09-12T02:25:37;119.18;;;54.47;;
11743;SDS011;5929;51.906;7.674;2023-09-12T02:28:04;135.35;;;57.42;;
11743;SDS011;5929;51.906;7.674;2023-09-12T02:30:31;139.88;;;59.95;;
11743;SDS011;5929;51.906;7.674;2023-09-12T02:33:00;144.60;;;60.35;;
11743;SDS011;5929;51.906;7.674;2023-09-12T02:35:27;135.90;;;57.47;;
11743;SDS011;5929;51.906;7.674;2023-09-12T02:37:56;102.18;;;52.60;;
11743;SDS011;5929;51.906;7.674;2023-09-12T02:40:23;126.03;;;59.85;;
11743;SDS011;5929;51.906;7.674;2023-09-12T02:42:50;152.50;;;61.17;;
11743;SDS011;5929;51.906;7.674;2023-09-12T02:45:17;167.73;;;61.78;;
11743;SDS011;5929;51.906;7.674;2023-09-12T02:47:44;144.60;;;59.55;;
11743;SDS011;5929;51.906;7.674;2023-09-12T02:50:11;119.22;;;55.45;;
11743;SDS011;5929;51.906;7.674;2023-09-12T02:52:38;115.45;;;56.53;;
11743;SDS011;5929;51.906;7.674;2023-09-12T02:55:06;123.65;;;57.05;;
11743;SDS011;5929;51.906;7.674;2023-09-12T02:57:33;106.35;;;52.85;;
11743;SDS011;5929;51.906;7.674;2023-09-12T03:00:00;99.15;;;48.25;;
11743;SDS011;5929;51.906;7.674;2023-09-12T03:02:27;78.63;;;43.25;;
11743;SDS011;5929;51.906;7.674;2023-09-12T03:04:54;72.30;;;36.38;;
11743;SDS011;5929;51.906;7.674;2023-09-12T03:07:21;65.32;;;33.10;;
11743;SDS011;5929;51.906;7.674;2023-09-12T03:09:48;55.78;;;31.50;;
11743;SDS011;5929;51.906;7.674;2023-09-12T03:12:16;27.70;;;19.08;;
11743;SDS011;5929;51.906;7.674;2023-09-12T03:14:43;39.92;;;23.17;;
11743;SDS011;5929;51.906;7.674;2023-09-12T03:17:09;35.63;;;23.13;;
11743;SDS011;5929;51.906;7.674;2023-09-12T03:19:36;39.28;;;23.05;;
11743;SDS011;5929;51.906;7.674;2023-09-12T03:22:03;28.60;;;19.10;;
11743;SDS011;5929;51.906;7.674;2023-09-12T03:24:30;40.30;;;22.55;;
11743;SDS011;5929;51.906;7.674;2023-09-12T03:26:57;47.60;;;24.58;;
11743;SDS011;5929;51.906;7.674;2023-09-12T03:29:25;49.55;;;26.95;;
11743;SDS011;5929;51.906;7.674;2023-09-12T03:31:51;45.58;;;26.20;;
11743;SDS011;5929;51.906;7.674;2023-09-12T03:34:18;47.72;;;26.05;;
11743;SDS011;5929;51.906;7.674;2023-09-12T03:36:45;52.15;;;28.15;;
11743;SDS011;5929;51.906;7.674;2023-09-12T03:39:12;64.68;;;29.77;;
11743;SDS011;5929;51.906;7.674;2023-09-12T03:41:39;81.47;;;33.95;;
11743;SDS011;5929;51.906;7.674;2023-09-12T03:44:07;66.90;;;33.10;;
11743;SDS011;5929;51.906;7.674;2023-09-12T03:46:38;63.90;;;31.17;;
11743;SDS011;5929;51.906;7.674;2023-09-12T03:49:04;55.78;;;29.02;;
11743;SDS011;5929;51.906;7.674;2023-09-12T03:51:31;87.78;;;34.85;;
11743;SDS011;5929;51.906;7.674;2023-09-12T03:53:59;76.35;;;34.80;;
11743;SDS011;5929;51.906;7.674;2023-09-12T03:56:27;58.22;;;31.40;;
11743;SDS011;5929;51.906;7.674;2023-09-12T03:58:54;60.92;;;29.27;;
11743;SDS011;5929;51.906;7.674;2023-09-12T04:01:23;45.47;;;25.48;;
11743;SDS011;5929;51.906;7.674;2023-09-12T04:03:51;41.55;;;23.48;;
11743;SDS011;5929;51.906;7.674;2023-09-12T04:06:17;47.40;;;23.77;;
11743;SDS011;5929;51.906;7.674;2023-09-12T04:08:44;39.80;;;21.58;;
11743;SDS011;5929;51.906;7.674;2023-09-12T04:11:11;49.50;;;25.85;;
11743;SDS011;5929;51.906;7.674;2023-09-12T04:13:38;43.20;;;23.77;;
11743;SDS011;5929;51.906;7.674;2023-09-12T04:16:05;49.85;;;26.70;;
11743;SDS011;5929;51.906;7.674;2023-09-12T04:18:31;63.53;;;29.13;;
11743;SDS011;5929;51.906;7.674;2023-09-12T04:20:59;59.10;;;29.40;;
11743;SDS011;5929;51.906;7.674;2023-09-12T04:23:26;50.72;;;30.27;;
11743;SDS011;5929;51.906;7.674;2023-09-12T04:25:55;45.22;;;28.02;;
11743;SDS011;5929;51.906;7.674;2023-09-12T04:28:25;59.08;;;29.83;;
11743;SDS011;5929;51.906;7.674;2023-09-12T04:30:55;49.58;;;28.10;;
11743;SDS011;5929;51.906;7.674;2023-09-12T04:33:27;49.47;;;30.33;;
11743;SDS011;5929;51.906;7.674;2023-09-12T04:35:54;49.35;;;30.27;;
11743;SDS011;5929;51.906;7.674;2023-09-12T04:38:25;59.70;;;31.20;;
11743;SDS011;5929;51.906;7.674;2023-09-12T04:40:55;53.97;;;30.73;;
11743;SDS011;5929;51.906;7.674;2023-09-12T04:43:22;55.78;;;30.50;;
11743;SDS011;5929;51.906;7.674;2023-09-12T04:45:49;55.92;;;30.98;;
11743;SDS011;5929;51.906;7.674;2023-09-12T04:48:16;52.35;;;31.95;;
11743;SDS011;5929;51.906;7.674;2023-09-12T04:50:43;56.92;;;30.63;;
11743;SDS011;5929;51.906;7.674;2023-09-12T04:53:11;57.83;;;31.75;;
11743;SDS011;5929;51.906;7.674;2023-09-12T04:55:39;51.22;;;32.47;;
11743;SDS011;5929;51.906;7.674;2023-09-12T04:58:06;57.55;;;33.03;;
11743;SDS011;5929;51.906;7.674;2023-09-12T05:00:33;63.20;;;34.78;;
11743;SDS011;5929;51.906;7.674;2023-09-12T05:03:01;65.00;;;36.90;;
11743;SDS011;5929;51.906;7.674;2023-09-12T05:05:28;68.07;;;35.03;;
11743;SDS011;5929;51.906;7.674;2023-09-12T05:07:55;73.95;;;37.72;;
11743;SDS011;5929;51.906;7.674;2023-09-12T05:10:24;76.60;;;38.13;;
11743;SDS011;5929;51.906;7.674;2023-09-12T05:12:53;79.53;;;36.15;;
11743;SDS011;5929;51.906;7.674;2023-09-12T05:15:19;73.53;;;35.03;;
11743;SDS011;5929;51.906;7.674;2023-09-12T05:17:48;80.93;;;36.08;;
11743;SDS011;5929;51.906;7.674;2023-09-12T05:20:15;75.85;;;36.88;;
11743;SDS011;5929;51.906;7.674;2023-09-12T05:22:42;69.47;;;35.85;;
11743;SDS011;5929;51.906;7.674;2023-09-12T05:25:09;76.07;;;36.25;;
11743;SDS011;5929;51.906;7.674;2023-09-12T05:27:36;80.07;;;37.80;;
11743;SDS011;5929;51.906;7.674;2023-09-12T05:30:05;84.75;;;36.60;;
11743;SDS011;5929;51.906;7.674;2023-09-12T05:32:32;87.20;;;38.08;;
11743;SDS011;5929;51.906;7.674;2023-09-12T05:34:59;81.95;;;36.03;;
11743;SDS011;5929;51.906;7.674;2023-09-12T05:37:26;77.68;;;38.00;;
11743;SDS011;5929;51.906;7.674;2023-09-12T05:39:53;64.03;;;35.17;;
11743;SDS011;5929;51.906;7.674;2023-09-12T05:42:20;62.72;;;33.53;;
11743;SDS011;5929;51.906;7.674;2023-09-12T05:44:47;63.30;;;35.25;;
11743;SDS011;5929;51.906;7.674;2023-09-12T05:47:17;65.90;;;34.38;;
11743;SDS011;5929;51.906;7.674;2023-09-12T05:49:44;72.03;;;36.85;;
11743;SDS011;5929;51.906;7.674;2023-09-12T05:52:11;56.72;;;32.35;;
11743;SDS011;5929;51.906;7.674;2023-09-12T05:54:37;70.03;;;36.50;;
11743;SDS011;5929;51.906;7.674;2023-09-12T05:57:05;59.35;;;32.22;;
11743;SDS011;5929;51.906;7.674;2023-09-12T05:59:34;59.65;;;31.75;;
11743;SDS011;5929;51.906;7.674;2023-09-12T06:02:02;63.67;;;35.72;;
11743;SDS011;5929;51.906;7.674;2023-09-12T06:04:30;74.10;;;36.42;;
11743;SDS011;5929;51.906;7.674;2023-09-12T06:06:57;70.53;;;35.92;;
11743;SDS011;5929;51.906;7.674;2023-09-12T06:09:24;67.78;;;36.67;;
11743;SDS011;5929;51.906;7.674;2023-09-12T06:11:51;75.82;;;38.60;;
11743;SDS011;5929;51.906;7.674;2023-09-12T06:14:18;72.45;;;39.67;;
11743;SDS011;5929;51.906;7.674;2023-09-12T06:16:45;90.18;;;40.85;;
11743;SDS011;5929;51.906;7.674;2023-09-12T06:19:12;83.88;;;38.35;;
11743;SDS011;5929;51.906;7.674;2023-09-12T06:21:43;81.25;;;40.63;;
11743;SDS011;5929;51.906;7.674;2023-09-12T06:24:10;100.25;;;40.50;;
11743;SDS011;5929;51.906;7.674;2023-09-12T06:26:38;69.47;;;35.50;;
11743;SDS011;5929;51.906;7.674;2023-09-12T06:29:06;79.43;;;38.85;;
11743;SDS011;5929;51.906;7.674;2023-09-12T06:31:32;78.68;;;42.00;;
11743;SDS011;5929;51.906;7.674;2023-09-12T06:33:59;78.55;;;39.75;;
11743;SDS011;5929;51.906;7.674;2023-09-12T06:36:27;83.53;;;41.13;;
11743;SDS011;5929;51.906;7.674;2023-09-12T06:38:56;100.85;;;44.47;;
11743;SDS011;5929;51.906;7.674;2023-09-12T06:41:25;85.13;;;44.28;;
11743;SDS011;5929;51.906;7.674;2023-09-12T06:43:53;101.05;;;45.58;;
11743;SDS011;5929;51.906;7.674;2023-09-12T06:46:22;156.38;;;51.85;;
11743;SDS011;5929;51.906;7.674;2023-09-12T06:48:48;96.85;;;42.20;;
11743;SDS011;5929;51.906;7.674;2023-09-12T06:51:15;127.97;;;49.47;;
11743;SDS011;5929;51.906;7.674;2023-09-12T06:53:43;153.35;;;53.05;;
11743;SDS011;5929;51.906;7.674;2023-09-12T06:56:11;152.02;;;52.83;;
11743;SDS011;5929;51.906;7.674;2023-09-12T06:58:38;132.18;;;50.78;;
11743;SDS011;5929;51.906;7.674;2023-09-12T07:01:05;138.95;;;49.28;;
11743;SDS011;5929;51.906;7.674;2023-09-12T07:03:35;123.90;;;46.25;;
11743;SDS011;5929;51.906;7.674;2023-09-12T07:06:04;108.95;;;43.55;;
11743;SDS011;5929;51.906;7.674;2023-09-12T07:08:31;111.55;;;45.38;;
11743;SDS011;5929;51.906;7.674;2023-09-12T07:10:58;110.70;;;43.60;;
11743;SDS011;5929;51.906;7.674;2023-09-12T07:13:32;99.03;;;42.75;;
11743;SDS011;5929;51.906;7.674;2023-09-12T07:15:59;77.32;;;39.58;;
11743;SDS011;5929;51.906;7.674;2023-09-12T07:18:28;84.05;;;41.13;;
11743;SDS011;5929;51.906;7.674;2023-09-12T07:20:58;94.85;;;41.75;;
11743;SDS011;5929;51.906;7.674;2023-09-12T07:23:26;83.70;;;41.58;;
11743;SDS011;5929;51.906;7.674;2023-09-12T07:25:53;69.47;;;38.75;;
11743;SDS011;5929;51.906;7.674;2023-09-12T07:28:22;71.13;;;38.83;;
11743;SDS011;5929;51.906;7.674;2023-09-12T07:30:50;67.22;;;38.35;;
11743;SDS011;5929;51.906;7.674;2023-09-12T07:33:17;71.03;;;40.05;;
11743;SDS011;5929;51.906;7.674;2023-09-12T07:35:44;98.20;;;46.20;;
11743;SDS011;5929;51.906;7.674;2023-09-12T07:38:12;97.20;;;44.38;;
11743;SDS011;5929;51.906;7.674;2023-09-12T07:40:40;131.85;;;49.88;;
11743;SDS011;5929;51.906;7.674;2023-09-12T07:43:07;112.60;;;47.47;;
11743;SDS011;5929;51.906;7.674;2023-09-12T07:45:34;134.57;;;49.95;;
11743;SDS011;5929;51.906;7.674;2023-09-12T07:48:05;137.30;;;49.30;;
11743;SDS011;5929;51.906;7.674;2023-09-12T07:50:32;126.85;;;48.50;;
11743;SDS011;5929;51.906;7.674;2023-09-12T07:52:59;105.85;;;45.67;;
11743;SDS011;5929;51.906;7.674;2023-09-12T07:55:26;115.50;;;47.00;;
11743;SDS011;5929;51.906;7.674;2023-09-12T07:57:55;101.72;;;43.90;;
11743;SDS011;5929;51.906;7.674;2023-09-12T08:00:23;118.80;;;46.40;;
11743;SDS011;5929;51.906;7.674;2023-09-12T08:02:52;137.98;;;51.03;;
11743;SDS011;5929;51.906;7.674;2023-09-12T08:05:20;134.27;;;48.78;;
11743;SDS011;5929;51.906;7.674;2023-09-12T08:07:47;138.77;;;52.85;;
11743;SDS011;5929;51.906;7.674;2023-09-12T08:10:14;154.73;;;52.75;;
11743;SDS011;5929;51.906;7.674;2023-09-12T08:12:41;145.77;;;52.22;;
11743;SDS011;5929;51.906;7.674;2023-09-12T08:15:08;127.22;;;50.50;;
11743;SDS011;5929;51.906;7.674;2023-09-12T08:17:35;121.30;;;48.30;;
11743;SDS011;5929;51.906;7.674;2023-09-12T08:20:03;152.85;;;53.67;;
11743;SDS011;5929;51.906;7.674;2023-09-12T08:22:32;130.02;;;49.67;;
11743;SDS011;5929;51.906;7.674;2023-09-12T08:24:59;144.70;;;54.33;;
11743;SDS011;5929;51.906;7.674;2023-09-12T08:27:26;143.45;;;54.55;;
11743;SDS011;5929;51.906;7.674;2023-09-12T08:29:53;139.45;;;52.58;;
11743;SDS011;5929;51.906;7.674;2023-09-12T08:32:22;167.85;;;55.45;;
11743;SDS011;5929;51.906;7.674;2023-09-12T08:34:49;156.13;;;53.95;;
11743;SDS011;5929;51.906;7.674;2023-09-12T08:37:15;145.88;;;54.92;;
11743;SDS011;5929;51.906;7.674;2023-09-12T08:39:44;146.45;;;51.80;;
11743;SDS011;5929;51.906;7.674;2023-09-12T08:42:11;162.50;;;55.50;;
11743;SDS011;5929;51.906;7.674;2023-09-12T08:44:40;181.15;;;57.92;;
11743;SDS011;5929;51.906;7.674;2023-09-12T08:47:08;155.95;;;52.17;;
11743;SDS011;5929;51.906;7.674;2023-09-12T08:49:35;172.70;;;57.60;;
11743;SDS011;5929;51.906;7.674;2023-09-12T08:52:03;180.55;;;54.70;;
11743;SDS011;5929;51.906;7.674;2023-09-12T08:54:30;159.55;;;51.53;;
11743;SDS011;5929;51.906;7.674;2023-09-12T08:56:58;147.18;;;55.45;;
11743;SDS011;5929;51.906;7.674;2023-09-12T08:59:28;177.27;;;55.95;;
11743;SDS011;5929;51.906;7.674;2023-09-12T09:01:56;138.30;;;52.38;;
11743;SDS011;5929;51.906;7.674;2023-09-12T09:04:23;143.32;;;54.47;;
11743;SDS011;5929;51.906;7.674;2023-09-12T09:06:51;140.20;;;54.55;;
11743;SDS011;5929;51.906;7.674;2023-09-12T09:09:19;141.40;;;52.92;;
11743;SDS011;5929;51.906;7.674;2023-09-12T09:11:49;153.93;;;54.30;;
11743;SDS011;5929;51.906;7.674;2023-09-12T09:14:19;175.20;;;57.28;;
11743;SDS011;5929;51.906;7.674;2023-09-12T09:16:46;170.43;;;56.67;;
11743;SDS011;5929;51.906;7.674;2023-09-12T09:19:13;137.20;;;51.65;;
11743;SDS011;5929;51.906;7.674;2023-09-12T09:21:41;126.85;;;50.28;;
11743;SDS011;5929;51.906;7.674;2023-09-12T09:24:09;131.40;;;53.17;;
11743;SDS011;5929;51.906;7.674;2023-09-12T09:26:41;136.15;;;52.60;;
11743;SDS011;5929;51.906;7.674;2023-09-12T09:29:09;120.70;;;50.45;;
11743;SDS011;5929;51.906;7.674;2023-09-12T09:31:41;107.50;;;48.80;;
11743;SDS011;5929;51.906;7.674;2023-09-12T09:34:11;109.15;;;48.88;;
11743;SDS011;5929;51.906;7.674;2023-09-12T09:36:42;102.15;;;47.88;;
11743;SDS011;5929;51.906;7.674;2023-09-12T09:39:09;102.68;;;46.25;;
11743;SDS011;5929;51.906;7.674;2023-09-12T09:41:37;80.82;;;41.20;;
11743;SDS011;5929;51.906;7.674;2023-09-12T09:44:05;72.57;;;37.55;;
11743;SDS011;5929;51.906;7.674;2023-09-12T09:46:33;70.88;;;39.63;;
11743;SDS011;5929;51.906;7.674;2023-09-12T09:49:02;53.78;;;33.42;;
11743;SDS011;5929;51.906;7.674;2023-09-12T09:51:29;56.83;;;32.63;;
11743;SDS011;5929;51.906;7.674;2023-09-12T09:53:57;46.95;;;29.45;;
11743;SDS011;5929;51.906;7.674;2023-09-12T09:56:25;42.10;;;28.38;;
11743;SDS011;5929;51.906;7.674;2023-09-12T09:58:55;41.80;;;26.05;;
11743;SDS011;5929;51.906;7.674;2023-09-12T10:01:23;46.55;;;28.45;;
11743;SDS011;5929;51.906;7.674;2023-09-12T10:03:55;39.35;;;28.33;;
11743;SDS011;5929;51.906;7.674;2023-09-12T10:06:25;32.05;;;23.63;;
11743;SDS011;5929;51.906;7.674;2023-09-12T10:08:54;34.88;;;23.83;;
11743;SDS011;5929;51.906;7.674;2023-09-12T10:11:22;29.55;;;21.17;;
11743;SDS011;5929;51.906;7.674;2023-09-12T10:13:53;30.08;;;23.17;;
11743;SDS011;5929;51.906;7.674;2023-09-12T10:16:23;26.80;;;21.42;;
11743;SDS011;5929;51.906;7.674;2023-09-12T10:18:55;23.83;;;19.95;;
11743;SDS011;5929;51.906;7.674;2023-09-12T10:21:28;96.85;;;29.60;;
11743;SDS011;5929;51.906;7.674;2023-09-12T10:23:58;27.40;;;20.35;;
11743;SDS011;5929;51.906;7.674;2023-09-12T10:26:26;25.98;;;19.13;;
11743;SDS011;5929;51.906;7.674;2023-09-12T10:28:55;21.40;;;15.02;;
11743;SDS011;5929;51.906;7.674;2023-09-12T10:31:24;16.58;;;12.57;;
11743;SDS011;5929;51.906;7.674;2023-09-12T10:33:52;17.35;;;13.55;;
11743;SDS011;5929;51.906;7.674;2023-09-12T10:36:20;21.58;;;16.63;;
11743;SDS011;5929;51.906;7.674;2023-09-12T10:38:49;30.73;;;16.30;;
11743;SDS011;5929;51.906;7.674;2023-09-12T10:41:17;16.27;;;13.13;;
11743;SDS011;5929;51.906;7.674;2023-09-12T10:43:49;15.52;;;11.95;;
11743;SDS011;5929;51.906;7.674;2023-09-12T10:46:18;12.98;;;11.25;;
11743;SDS011;5929;51.906;7.674;2023-09-12T10:48:46;14.45;;;10.85;;
11743;SDS011;5929;51.906;7.674;2023-09-12T10:51:13;11.32;;;9.68;;
11743;SDS011;5929;51.906;7.674;2023-09-12T10:53:46;11.68;;;9.35;;
11743;SDS011;5929;51.906;7.674;2023-09-12T10:56:17;13.93;;;9.73;;
11743;SDS011;5929;51.906;7.674;2023-09-12T11:01:37;11.95;;;8.95;;
11743;SDS011;5929;51.906;7.674;2023-09-12T11:06:58;8.85;;;7.13;;
11743;SDS011;5929;51.906;7.674;2023-09-12T11:09:25;10.05;;;7.10;;
11743;SDS011;5929;51.906;7.674;2023-09-12T11:11:55;10.43;;;6.88;;
11743;SDS011;5929;51.906;7.674;2023-09-12T11:14:24;9.30;;;6.35;;
11743;SDS011;5929;51.906;7.674;2023-09-12T11:17:19;8.93;;;7.07;;
11743;SDS011;5929;51.906;7.674;2023-09-12T11:19:49;7.93;;;5.65;;
11743;SDS011;5929;51.906;7.674;2023-09-12T11:22:21;8.77;;;6.22;;
11743;SDS011;5929;51.906;7.674;2023-09-12T11:24:52;7.97;;;6.03;;
11743;SDS011;5929;51.906;7.674;2023-09-12T11:27:22;9.80;;;5.90;;
11743;SDS011;5929;51.906;7.674;2023-09-12T11:29:52;8.93;;;5.88;;
11743;SDS011;5929;51.906;7.674;2023-09-12T11:32:25;9.18;;;6.78;;
11743;SDS011;5929;51.906;7.674;2023-09-12T11:34:56;11.65;;;6.43;;
11743;SDS011;5929;51.906;7.674;2023-09-12T11:37:25;8.23;;;6.80;;
11743;SDS011;5929;51.906;7.674;2023-09-12T11:39:54;8.70;;;6.38;;
11743;SDS011;5929;51.906;7.674;2023-09-12T11:42:26;11.15;;;7.28;;
11743;SDS011;5929;51.906;7.674;2023-09-12T11:44:53;10.80;;;6.75;;
11743;SDS011;5929;51.906;7.674;2023-09-12T11:47:20;11.48;;;8.40;;
11743;SDS011;5929;51.906;7.674;2023-09-12T11:49:48;11.48;;;9.00;;
11743;SDS011;5929;51.906;7.674;2023-09-12T11:52:15;10.23;;;7.75;;
11743;SDS011;5929;51.906;7.674;2023-09-12T11:54:42;7.40;;;6.65;;
11743;SDS011;5929;51.906;7.674;2023-09-12T11:57:10;9.95;;;6.30;;
11743;SDS011;5929;51.906;7.674;2023-09-12T11:59:43;9.57;;;6.47;;
11743;SDS011;5929;51.906;7.674;2023-09-12T12:02:11;7.07;;;5.32;;
11743;SDS011;5929;51.906;7.674;2023-09-12T12:04:38;7.45;;;5.72;;
11743;SDS011;5929;51.906;7.674;2023-09-12T12:07:06;7.20;;;5.65;;
11743;SDS011;5929;51.906;7.674;2023-09-12T12:09:33;8.68;;;4.88;;
11743;SDS011;5929;51.906;7.674;2023-09-12T12:12:03;9.30;;;4.90;;
11743;SDS011;5929;51.906;7.674;2023-09-12T12:14:35;7.75;;;4.85;;
11743;SDS011;5929;51.906;7.674;2023-09-12T12:17:07;9.32;;;5.82;;
11743;SDS011;5929;51.906;7.674;2023-09-12T12:19:35;6.55;;;4.47;;
11743;SDS011;5929;51.906;7.674;2023-09-12T12:22:02;7.65;;;4.53;;
11743;SDS011;5929;51.906;7.674;2023-09-12T12:24:38;6.20;;;4.32;;
11743;SDS011;5929;51.906;7.674;2023-09-12T12:27:06;7.28;;;4.53;;
11743;SDS011;5929;51.906;7.674;2023-09-12T12:29:36;8.30;;;5.40;;
11743;SDS011;5929;51.906;7.674;2023-09-12T12:32:04;6.70;;;4.50;;
11743;SDS011;5929;51.906;7.674;2023-09-12T12:34:34;7.53;;;4.22;;
11743;SDS011;5929;51.906;7.674;2023-09-12T12:37:02;7.05;;;4.10;;
11743;SDS011;5929;51.906;7.674;2023-09-12T12:39:29;6.10;;;3.63;;
11743;SDS011;5929;51.906;7.674;2023-09-12T12:41:57;6.30;;;4.47;;
11743;SDS011;5929;51.906;7.674;2023-09-12T12:44:32;6.57;;;4.72;;
11743;SDS011;5929;51.906;7.674;2023-09-12T12:47:03;8.40;;;4.88;;
11743;SDS011;5929;51.906;7.674;2023-09-12T12:49:36;8.02;;;4.70;;
11743;SDS011;5929;51.906;7.674;2023-09-12T12:52:05;7.47;;;4.85;;
11743;SDS011;5929;51.906;7.674;2023-09-12T12:54:35;8.32;;;5.05;;
11743;SDS011;5929;51.906;7.674;2023-09-12T12:57:02;6.43;;;4.85;;
11743;SDS011;5929;51.906;7.674;2023-09-12T12:59:30;7.90;;;5.38;;
11743;SDS011;5929;51.906;7.674;2023-09-12T13:02:01;9.85;;;5.50;;
11743;SDS011;5929;51.906;7.674;2023-09-12T13:04:28;7.55;;;5.20;;
11743;SDS011;5929;51.906;7.674;2023-09-12T13:07:03;7.85;;;5.15;;
11743;SDS011;5929;51.906;7.674;2023-09-12T13:09:30;8.00;;;5.22;;
11743;SDS011;5929;51.906;7.674;2023-09-12T13:11:57;7.45;;;5.72;;
11743;SDS011;5929;51.906;7.674;2023-09-12T13:14:24;7.93;;;5.57;;
11743;SDS011;5929;51.906;7.674;2023-09-12T13:16:56;6.70;;;5.38;;
11743;SDS011;5929;51.906;7.674;2023-09-12T13:19:23;8.75;;;5.50;;
11743;SDS011;5929;51.906;7.674;2023-09-12T13:21:52;8.63;;;5.28;;
11743;SDS011;5929;51.906;7.674;2023-09-12T13:24:19;6.90;;;4.72;;
11743;SDS011;5929;51.906;7.674;2023-09-12T13:26:48;8.27;;;5.68;;
11743;SDS011;5929;51.906;7.674;2023-09-12T13:29:15;6.93;;;5.13;;
11743;SDS011;5929;51.906;7.674;2023-09-12T13:31:41;6.90;;;4.90;;
11743;SDS011;5929;51.906;7.674;2023-09-12T13:34:08;7.63;;;4.72;;
11743;SDS011;5929;51.906;7.674;2023-09-12T13:36:35;8.07;;;5.47;;
11743;SDS011;5929;51.906;7.674;2023-09-12T13:39:03;9.18;;;5.05;;
11743;SDS011;5929;51.906;7.674;2023-09-12T13:41:31;7.40;;;4.57;;
11743;SDS011;5929;51.906;7.674;2023-09-12T13:43:58;8.00;;;4.80;;
11743;SDS011;5929;51.906;7.674;2023-09-12T13:46:25;8.45;;;5.45;;
11743;SDS011;5929;51.906;7.674;2023-09-12T13:48:52;10.43;;;4.95;;
11743;SDS011;5929;51.906;7.674;2023-09-12T13:51:19;9.85;;;5.35;;
11743;SDS011;5929;51.906;7.674;2023-09-12T13:53:45;9.07;;;5.68;;
11743;SDS011;5929;51.906;7.674;2023-09-12T13:56:13;8.23;;;6.10;;
11743;SDS011;5929;51.906;7.674;2023-09-12T13:58:40;8.00;;;5.57;;
11743;SDS011;5929;51.906;7.674;2023-09-12T14:01:07;7.47;;;5.18;;
11743;SDS011;5929;51.906;7.674;2023-09-12T14:03:34;8.02;;;5.60;;
11743;SDS011;5929;51.906;7.674;2023-09-12T14:06:01;10.00;;;5.60;;
11743;SDS011;5929;51.906;7.674;2023-09-12T14:08:27;8.20;;;5.55;;
11743;SDS011;5929;51.906;7.674;2023-09-12T14:10:54;8.55;;;5.03;;
11743;SDS011;5929;51.906;7.674;2023-09-12T14:13:22;9.10;;;5.57;;
11743;SDS011;5929;51.906;7.674;2023-09-12T14:15:49;9.05;;;6.53;;
11743;SDS011;5929;51.906;7.674;2023-09-12T14:18:16;8.55;;;4.93;;
11743;SDS011;5929;51.906;7.674;2023-09-12T14:20:45;7.68;;;5.75;;
11743;SDS011;5929;51.906;7.674;2023-09-12T14:23:12;7.65;;;5.50;;
11743;SDS011;5929;51.906;7.674;2023-09-12T14:25:39;7.03;;;4.50;;
11743;SDS011;5929;51.906;7.674;2023-09-12T14:28:05;9.57;;;5.22;;
11743;SDS011;5929;51.906;7.674;2023-09-12T14:30:34;9.27;;;4.93;;
11743;SDS011;5929;51.906;7.674;2023-09-12T14:33:03;6.28;;;4.72;;
11743;SDS011;5929;51.906;7.674;2023-09-12T14:35:30;7.70;;;5.10;;
11743;SDS011;5929;51.906;7.674;2023-09-12T14:37:57;7.40;;;5.03;;
11743;SDS011;5929;51.906;7.674;2023-09-12T14:40:24;7.95;;;5.00;;
11743;SDS011;5929;51.906;7.674;2023-09-12T14:42:52;7.07;;;5.22;;
11743;SDS011;5929;51.906;7.674;2023-09-12T14:45:19;7.43;;;4.90;;
11743;SDS011;5929;51.906;7.674;2023-09-12T14:47:47;8.15;;;4.80;;
11743;SDS011;5929;51.906;7.674;2023-09-12T14:50:14;6.35;;;4.50;;
11743;SDS011;5929;51.906;7.674;2023-09-12T14:52:41;6.03;;;4.57;;